EGJA/ACI METAR and TAF weather

Enter ICAO airport designator
Station Type Date Time Source
EGJA METAR 2022/08/16 17:20 UTC NOAA

EGJA 161720Z 12004KT 090V150 9999 FEW015 20/16 Q1007


Station Type Date Time Source
EGJA Decoded METAR 2022/08/16 17:20 UTC NOAA

Alderney / Channel Island, United Kingdom (EGJA) 49-43N 002-12W
Aug 16, 2022 - 01:20 PM EDT / 2022.08.16 1720 UTC
Wind: from the ESE (120 degrees) at 5 MPH (4 KT) (direction variable):0
Visibility: greater than 7 mile(s):0
Sky conditions: mostly clear
Temperature: 68 F (20 C)
Dew Point: 60 F (16 C)
Relative Humidity: 77%
Pressure (altimeter): 29.74 in. Hg (1007 hPa)
ob: EGJA 161720Z 12004KT 090V150 9999 FEW015 20/16 Q1007
cycle: 17

Station Type Date Time Source
EGJA TAF UTC NOAA

Error!

Example: see airport list